Time;durP1;ratioP1;P1;durP2;ratioP2;P2;SDS_P1;SDS_P2;PMS_P1;PMS_P2;Temp;Humidity;BMP_temperature;BMP_pressure;BME280_temperature;BME280_humidity;BME280_pressure;Samples;Min_cycle;Max_cycle;Signal;HPM_P1;HPM_P2
2021/12/08 00:01:28;;;;;;;12.40;9.20;;;;;;;-1.09;95.60;99010.39;106018;1325;22522;-59
2021/12/08 00:03:56;;;;;;;13.90;9.70;;;;;;;-1.09;95.66;99015.38;106044;1318;137963;-58
2021/12/08 00:06:24;;;;;;;17.70;11.40;;;;;;;-1.10;95.53;99019.27;106057;1318;22378;-58
2021/12/08 00:14:27;;;;;;;16.50;10.90;;;;;;;-1.11;95.41;99025.80;106088;1319;22382;-57
2021/12/08 00:16:55;;;;;;;17.60;10.10;;;;;;;-1.12;95.60;99025.09;106052;1325;137980;-57
2021/12/08 00:19:24;;;;;;;14.40;10.40;;;;;;;-1.13;95.74;99017.22;105973;1321;22496;-57
2021/12/08 00:21:52;;;;;;;14.80;10.20;;;;;;;-1.14;95.82;99012.66;105914;1320;139554;-57
2021/12/08 00:24:20;;;;;;;14.10;10.20;;;;;;;-1.14;95.68;99010.17;106125;1318;23284;-57
2021/12/08 00:26:49;;;;;;;12.60;9.90;;;;;;;-1.15;95.44;99008.32;106137;1319;22394;-57
2021/12/08 00:29:17;;;;;;;15.20;10.40;;;;;;;-1.14;95.99;99010.05;105917;1319;137803;-57
2021/12/08 00:31:46;;;;;;;15.10;11.10;;;;;;;-1.14;95.64;99009.23;106123;1318;22469;-57
2021/12/08 00:34:14;;;;;;;15.40;11.10;;;;;;;-1.14;95.58;99010.34;105973;1318;138023;-57
2021/12/08 00:36:46;;;;;;;16.20;10.50;;;;;;;-1.14;95.43;99011.58;106110;1322;22485;-57
2021/12/08 00:39:15;;;;;;;15.40;9.40;;;;;;;-1.16;95.57;99016.15;105989;1318;22395;-57
2021/12/08 00:41:43;;;;;;;16.60;10.70;;;;;;;-1.15;95.56;99015.54;105812;1319;139030;-57
2021/12/08 00:44:11;;;;;;;16.20;11.00;;;;;;;-1.15;95.55;99017.45;106149;1318;22392;-57
2021/12/08 00:46:39;;;;;;;16.30;10.50;;;;;;;-1.14;95.65;99016.55;105815;1318;137979;-57
2021/12/08 00:49:08;;;;;;;15.20;10.30;;;;;;;-1.13;95.65;99017.14;105926;1322;22395;-57
2021/12/08 00:51:36;;;;;;;15.90;10.80;;;;;;;-1.12;95.68;99016.04;105892;1321;138798;-57
2021/12/08 00:54:04;;;;;;;13.40;9.70;;;;;;;-1.13;95.62;99017.31;106038;1321;23550;-57
2021/12/08 00:56:33;;;;;;;12.50;9.30;;;;;;;-1.11;95.45;99019.98;106023;1320;22471;-57
2021/12/08 00:59:01;;;;;;;14.20;9.80;;;;;;;-1.11;95.84;99017.58;106005;1318;137920;-57
2021/12/08 01:01:29;;;;;;;15.90;10.20;;;;;;;-1.12;95.76;99020.56;106113;1318;23190;-57
2021/12/08 01:03:58;;;;;;;14.60;9.90;;;;;;;-1.11;95.84;99022.05;105839;1323;138718;-57
2021/12/08 01:06:26;;;;;;;14.80;10.50;;;;;;;-1.11;95.66;99019.88;105918;1323;23027;-57
2021/12/08 01:08:54;;;;;;;16.30;10.90;;;;;;;-1.11;95.67;99021.68;106116;1318;22441;-57
2021/12/08 01:11:26;;;;;;;15.80;10.60;;;;;;;-1.10;95.57;99023.54;106035;1318;138138;-57
2021/12/08 01:13:54;;;;;;;13.70;10.40;;;;;;;-1.10;95.75;99017.30;106117;1318;22761;-57
2021/12/08 01:16:23;;;;;;;15.10;10.30;;;;;;;-1.10;95.76;99021.61;106010;1320;138590;-57
2021/12/08 01:18:51;;;;;;;17.10;11.00;;;;;;;-1.11;95.61;99014.11;106066;1318;22474;-57
2021/12/08 01:21:20;;;;;;;16.30;11.50;;;;;;;-1.13;95.70;99016.41;106128;1322;23310;-57
2021/12/08 01:23:48;;;;;;;17.00;11.80;;;;;;;-1.14;95.69;99012.24;105998;1318;138888;-58
2021/12/08 01:26:16;;;;;;;17.00;11.30;;;;;;;-1.13;95.66;99011.09;106105;1322;22411;-56
2021/12/08 01:28:45;;;;;;;18.70;13.00;;;;;;;-1.13;95.74;99009.20;106003;1318;139560;-56
2021/12/08 01:31:14;;;;;;;16.30;11.20;;;;;;;-1.13;95.69;99012.20;105141;1321;22532;-55
2021/12/08 01:33:42;;;;;;;17.40;12.90;;;;;;;-1.13;95.76;99001.35;105988;1318;138940;-56
2021/12/08 01:36:11;;;;;;;16.50;11.00;;;;;;;-1.14;95.73;98993.98;106097;1318;23163;-56
2021/12/08 01:38:39;;;;;;;18.10;12.50;;;;;;;-1.15;95.86;98993.52;105970;1321;22404;-56
2021/12/08 01:41:08;;;;;;;17.20;12.00;;;;;;;-1.13;95.62;98997.23;106037;1318;139031;-56
2021/12/08 01:46:23;;;;;;;18.20;11.10;;;;;;;-1.12;95.93;98994.81;106010;1318;140039;-56
2021/12/08 01:48:51;;;;;;;17.80;12.80;;;;;;;-1.13;95.73;98995.77;106135;1318;22450;-57
2021/12/08 01:51:19;;;;;;;18.60;11.40;;;;;;;-1.14;95.82;98997.55;106078;1318;22462;-56
2021/12/08 01:53:49;;;;;;;17.40;11.50;;;;;;;-1.16;95.70;98997.61;105984;1318;138098;-56
2021/12/08 01:56:18;;;;;;;16.50;11.20;;;;;;;-1.16;95.72;99000.70;104232;1318;22744;-56
2021/12/08 01:58:46;;;;;;;18.70;12.90;;;;;;;-1.17;96.06;99002.73;105999;1318;139359;-57
2021/12/08 02:01:16;;;;;;;17.30;11.90;;;;;;;-1.18;95.80;98998.96;106155;1318;22502;-57
2021/12/08 02:03:45;;;;;;;19.10;12.00;;;;;;;-1.19;95.78;98991.42;105826;1320;138395;-58
2021/12/08 02:06:14;;;;;;;17.10;11.40;;;;;;;-1.21;95.83;98991.52;106110;1318;22479;-58
2021/12/08 02:08:44;;;;;;;19.50;12.10;;;;;;;-1.23;95.72;98986.95;106112;1318;22463;-57
2021/12/08 02:11:13;;;;;;;20.70;13.30;;;;;;;-1.22;95.91;98980.82;105679;1324;139041;-59
2021/12/08 02:13:41;;;;;;;17.90;12.40;;;;;;;-1.22;95.78;98983.95;105859;1321;22573;-58
2021/12/08 02:16:11;;;;;;;19.90;13.20;;;;;;;-1.23;95.89;98981.60;106009;1318;138628;-58
2021/12/08 02:18:40;;;;;;;20.90;13.90;;;;;;;-1.24;96.06;98977.77;106117;1318;22469;-57
2021/12/08 02:21:26;;;;;;;17.80;11.30;;;;;;;-1.23;95.82;98979.50;106130;1318;22423;-59
2021/12/08 02:23:56;;;;;;;17.80;11.50;;;;;;;-1.25;95.94;98976.15;106015;1318;138598;-58
2021/12/08 02:26:24;;;;;;;21.00;13.60;;;;;;;-1.26;95.93;98973.88;106124;1318;22615;-58
2021/12/08 02:28:53;;;;;;;21.70;13.90;;;;;;;-1.28;95.88;98982.63;106013;1318;138308;-58
2021/12/08 02:31:32;;;;;;;22.80;13.50;;;;;;;-1.29;96.06;98977.68;106090;1318;22472;-57
2021/12/08 02:47:54;;;;;;;18.60;12.80;;;;;;;-1.28;96.20;98974.23;106007;1318;138981;-58
2021/12/08 02:50:25;;;;;;;19.40;13.30;;;;;;;-1.30;96.24;98971.44;106082;1318;23135;-58
2021/12/08 02:52:54;;;;;;;19.60;13.20;;;;;;;-1.30;96.13;98971.13;105999;1322;138174;-58
2021/12/08 02:55:22;;;;;;;20.30;12.80;;;;;;;-1.29;96.21;98974.94;106090;1318;22314;-58
2021/12/08 02:57:50;;;;;;;22.60;14.00;;;;;;;-1.30;96.36;98971.08;106128;1318;23610;-58
2021/12/08 03:00:23;;;;;;;19.70;13.00;;;;;;;-1.27;96.09;98980.03;105935;1318;138491;-58
2021/12/08 03:02:54;;;;;;;18.50;12.50;;;;;;;-1.28;96.18;98982.58;106107;1318;22482;-58
2021/12/08 03:05:22;;;;;;;21.50;13.60;;;;;;;-1.29;96.22;98980.27;106022;1318;138197;-58
2021/12/08 03:07:50;;;;;;;18.90;12.20;;;;;;;-1.29;96.33;98982.73;106114;1318;22467;-58
2021/12/08 03:10:21;;;;;;;18.40;11.20;;;;;;;-1.30;96.27;98983.13;105766;1321;138514;-58
2021/12/08 03:12:58;;;;;;;20.80;13.20;;;;;;;-1.30;96.33;98981.92;106021;1321;22552;-57
2021/12/08 03:15:26;;;;;;;21.60;14.80;;;;;;;-1.31;96.28;98979.91;105595;1318;22793;-56
2021/12/08 03:17:54;;;;;;;24.30;15.20;;;;;;;-1.31;96.22;98980.19;101778;1323;138267;-58
2021/12/08 03:20:49;;;;;;;24.20;14.20;;;;;;;-1.31;96.18;98983.77;101735;1321;25485;-56
2021/12/08 03:23:18;;;;;;;20.80;12.90;;;;;;;-1.32;96.36;98976.20;105962;1318;139064;-58
2021/12/08 03:25:55;;;;;;;24.90;14.90;;;;;;;-1.31;96.52;98971.68;106126;1318;22358;-58
2021/12/08 03:28:27;;;;;;;22.90;14.20;;;;;;;-1.32;96.39;98972.55;105914;1321;140065;-57
2021/12/08 03:31:13;;;;;;;22.40;14.10;;;;;;;-1.31;96.28;98979.42;106108;1318;22562;-58
2021/12/08 03:33:42;;;;;;;23.40;14.30;;;;;;;-1.32;96.37;98979.90;106120;1318;22401;-58
2021/12/08 03:36:10;;;;;;;21.60;14.10;;;;;;;-1.33;96.30;98976.65;105989;1318;138271;-58
2021/12/08 03:38:39;;;;;;;25.70;16.70;;;;;;;-1.33;96.53;98979.73;105738;1320;23115;-57
2021/12/08 03:41:11;;;;;;;24.10;14.30;;;;;;;-1.35;96.36;98973.17;105970;1318;139129;-57
2021/12/08 03:43:39;;;;;;;26.10;15.20;;;;;;;-1.33;96.43;98980.22;106081;1318;22409;-57
2021/12/08 03:46:11;;;;;;;26.50;15.50;;;;;;;-1.34;96.73;98976.23;105994;1318;138511;-57
2021/12/08 03:48:48;;;;;;;26.50;16.60;;;;;;;-1.36;96.43;98965.81;106137;1318;22468;-57
2021/12/08 03:51:16;;;;;;;26.70;15.50;;;;;;;-1.38;96.66;98962.34;106101;1318;23644;-57
2021/12/08 03:53:45;;;;;;;27.00;15.60;;;;;;;-1.35;96.65;98966.44;105971;1318;139307;-58
2021/12/08 03:56:13;;;;;;;26.30;15.40;;;;;;;-1.35;96.55;98968.37;106049;1318;22485;-58
2021/12/08 03:58:41;;;;;;;26.10;15.00;;;;;;;-1.35;96.74;98959.83;105855;1323;138161;-58
2021/12/08 04:01:09;;;;;;;27.20;15.80;;;;;;;-1.37;96.55;98956.67;106130;1318;22510;-58
2021/12/08 04:03:39;;;;;;;25.70;15.50;;;;;;;-1.38;96.49;98963.20;106110;1318;22533;-58
2021/12/08 04:06:25;;;;;;;21.70;13.30;;;;;;;-1.37;96.40;98972.61;106005;1318;140004;-58
2021/12/08 04:08:56;;;;;;;25.20;14.20;;;;;;;-1.38;96.54;98971.42;106095;1318;23182;-58
2021/12/08 04:11:25;;;;;;;29.90;17.20;;;;;;;-1.37;96.86;98972.24;105977;1318;138285;-58
2021/12/08 04:14:03;;;;;;;24.90;15.10;;;;;;;-1.38;96.86;98977.63;106140;1318;22605;-58
2021/12/08 04:16:35;;;;;;;21.40;13.00;;;;;;;-1.39;96.72;98971.34;103545;1321;138424;-57
2021/12/08 04:19:04;;;;;;;24.00;14.70;;;;;;;-1.39;96.83;98971.50;106126;1318;22500;-59
2021/12/08 04:21:32;;;;;;;24.60;14.70;;;;;;;-1.38;96.79;98972.65;106130;1318;22463;-59
2021/12/08 04:24:00;;;;;;;27.00;16.20;;;;;;;-1.37;96.91;98967.60;105967;1318;138470;-59
2021/12/08 04:26:55;;;;;;;22.30;13.70;;;;;;;-1.34;97.07;98966.52;106112;1319;22491;-59
2021/12/08 04:29:26;;;;;;;23.80;14.50;;;;;;;-1.31;97.05;98971.23;105934;1318;139168;-59
2021/12/08 04:31:54;;;;;;;23.70;14.30;;;;;;;-1.29;96.94;98958.62;106122;1318;22444;-59
2021/12/08 04:34:27;;;;;;;22.70;13.20;;;;;;;-1.27;96.97;98958.45;104978;1324;139430;-59
2021/12/08 04:36:59;;;;;;;20.30;14.00;;;;;;;-1.28;97.05;98957.05;106104;1318;22328;-59
2021/12/08 04:39:55;;;;;;;23.50;13.40;;;;;;;-1.29;96.94;98963.80;105896;1322;22509;-59
2021/12/08 04:42:36;;;;;;;19.30;12.50;;;;;;;-1.26;96.93;98972.40;105978;1318;138007;-59
2021/12/08 04:45:11;;;;;;;25.30;13.80;;;;;;;-1.27;96.92;98969.93;106094;1318;22461;-59
2021/12/08 04:48:04;;;;;;;22.10;13.20;;;;;;;-1.27;96.92;98970.34;105997;1318;139082;-59
2021/12/08 04:50:59;;;;;;;21.40;12.70;;;;;;;-1.27;96.89;98970.14;106040;1318;22440;-59
2021/12/08 04:53:43;;;;;;;21.30;11.90;;;;;;;-1.26;96.85;98972.06;105994;1318;138865;-59
2021/12/08 05:02:14;;;;;;;23.10;13.50;;;;;;;-1.26;96.83;98982.31;106101;1318;23547;-60
2021/12/08 05:05:06;;;;;;;21.50;13.20;;;;;;;-1.24;97.06;98981.02;105937;1318;139893;-59
2021/12/08 05:07:49;;;;;;;23.00;13.80;;;;;;;-1.24;96.92;98984.80;105763;1319;319132;-59
2021/12/08 05:10:25;;;;;;;23.40;12.00;;;;;;;-1.23;96.98;98985.02;105948;1317;138408;-59
2021/12/08 05:12:54;;;;;;;23.50;11.90;;;;;;;-1.22;96.88;98987.57;106059;1318;22468;-59
2021/12/08 05:15:30;;;;;;;21.00;12.30;;;;;;;-1.22;96.66;98984.15;105979;1320;22582;-59
2021/12/08 05:18:12;;;;;;;17.40;12.40;;;;;;;-1.21;97.05;98990.45;105984;1318;138545;-59
2021/12/08 05:20:45;;;;;;;17.70;10.60;;;;;;;-1.21;96.89;98984.87;106010;1318;22589;-59
2021/12/08 05:23:40;;;;;;;19.40;12.40;;;;;;;-1.19;96.85;98991.23;105754;1320;138383;-59
2021/12/08 05:26:20;;;;;;;17.60;10.90;;;;;;;-1.20;96.73;98991.08;106069;1318;23275;-57
2021/12/08 05:28:49;;;;;;;16.90;11.20;;;;;;;-1.19;96.68;98987.52;105963;1318;138624;-57
2021/12/08 05:31:23;;;;;;;22.20;11.40;;;;;;;-1.18;96.64;98988.60;106014;1318;22477;-57
2021/12/08 05:33:51;;;;;;;15.00;9.90;;;;;;;-1.17;96.92;98991.33;106078;1318;22514;-57
2021/12/08 05:36:20;;;;;;;17.20;10.00;;;;;;;-1.16;96.59;98998.02;105969;1318;138704;-57
2021/12/08 05:38:49;;;;;;;19.20;11.90;;;;;;;-1.17;96.51;98991.69;105666;1321;22657;-57
2021/12/08 05:41:23;;;;;;;14.80;9.40;;;;;;;-1.16;96.62;98987.41;105970;1318;139254;-56
2021/12/08 05:43:51;;;;;;;19.20;10.30;;;;;;;-1.14;96.71;98985.23;106077;1318;22472;-56
2021/12/08 05:46:20;;;;;;;17.60;10.50;;;;;;;-1.12;96.48;98987.21;105976;1318;138507;-56
2021/12/08 05:48:50;;;;;;;16.90;10.10;;;;;;;-1.10;96.35;98988.95;106035;1318;22432;-56
2021/12/08 05:51:23;;;;;;;17.20;10.30;;;;;;;-1.08;96.65;98990.38;106003;1318;24113;-57
2021/12/08 05:53:53;;;;;;;14.80;10.30;;;;;;;-1.06;96.61;98987.80;105953;1318;140447;-56
2021/12/08 05:56:21;;;;;;;15.60;10.20;;;;;;;-1.06;96.53;98987.22;105925;1320;22519;-58
2021/12/08 05:58:51;;;;;;;15.40;9.30;;;;;;;-1.05;96.25;98992.48;105864;1318;138198;-58
2021/12/08 06:01:37;;;;;;;15.40;9.80;;;;;;;-1.06;96.08;98992.81;105774;1318;22308;-58
2021/12/08 06:04:06;;;;;;;16.00;9.60;;;;;;;-1.05;96.20;98990.23;105850;1318;139044;-58
2021/12/08 06:06:35;;;;;;;11.10;8.00;;;;;;;-1.04;96.04;98998.25;105961;1318;22511;-58
2021/12/08 06:09:24;;;;;;;13.50;8.80;;;;;;;-1.05;95.92;98989.24;106058;1318;22478;-58
2021/12/08 06:11:52;;;;;;;13.90;8.90;;;;;;;-1.04;96.12;98987.64;105871;1318;139281;-58
2021/12/08 06:14:22;;;;;;;16.80;9.50;;;;;;;-1.04;96.05;98991.30;106039;1318;22435;-58
2021/12/08 06:16:51;;;;;;;15.10;9.20;;;;;;;-1.04;95.62;98987.04;105785;1318;139584;-58
2021/12/08 06:19:19;;;;;;;15.00;8.60;;;;;;;-1.03;95.96;98980.96;106006;1318;23206;-58
2021/12/08 06:21:49;;;;;;;13.60;7.80;;;;;;;-1.02;95.91;98988.69;106040;1318;23593;-58
2021/12/08 06:24:17;;;;;;;14.50;8.70;;;;;;;-1.01;95.43;98987.78;105711;1319;139666;-57
2021/12/08 06:26:45;;;;;;;12.60;8.50;;;;;;;-1.01;95.65;98991.98;106014;1318;22515;-58
2021/12/08 06:29:15;;;;;;;11.20;7.00;;;;;;;-1.00;95.56;98991.14;105945;1318;139185;-58
2021/12/08 06:31:45;;;;;;;12.80;8.40;;;;;;;-0.99;95.72;98995.11;105465;1321;22498;-58
2021/12/08 06:34:13;;;;;;;11.60;7.80;;;;;;;-0.97;95.45;98996.34;105915;1318;138921;-58
2021/12/08 06:36:54;;;;;;;12.00;7.20;;;;;;;-0.98;95.49;98993.50;105968;1318;22408;-59
2021/12/08 06:39:32;;;;;;;14.40;8.10;;;;;;;-0.97;95.32;98995.07;105961;1318;23472;-57
2021/12/08 06:42:06;;;;;;;13.50;8.50;;;;;;;-0.96;95.44;98995.28;105866;1318;138295;-58
2021/12/08 06:44:36;;;;;;;15.80;8.30;;;;;;;-0.96;95.15;98995.41;105994;1318;23269;-58
2021/12/08 06:47:04;;;;;;;12.20;7.50;;;;;;;-0.95;95.08;98991.89;105843;1318;138034;-57
2021/12/08 06:49:32;;;;;;;12.70;8.20;;;;;;;-0.95;95.20;98991.23;106008;1318;22417;-57
2021/12/08 06:52:07;;;;;;;10.80;7.20;;;;;;;-0.96;95.02;98985.79;105713;1321;138626;-57
2021/12/08 06:54:40;;;;;;;10.60;7.80;;;;;;;-0.95;94.92;98986.41;106089;1318;22504;-57
2021/12/08 06:57:19;;;;;;;12.00;6.90;;;;;;;-0.96;95.05;98981.17;106062;1322;22464;-58
2021/12/08 07:00:17;;;;;;;11.40;7.50;;;;;;;-0.96;94.71;98982.20;105849;1318;139244;-58
2021/12/08 07:05:29;;;;;;;10.00;6.60;;;;;;;-0.93;95.15;98979.19;105429;1320;138534;-57
2021/12/08 07:08:04;;;;;;;10.00;6.80;;;;;;;-0.93;94.84;98980.59;105966;1317;22502;-57
2021/12/08 07:10:38;;;;;;;10.20;6.90;;;;;;;-0.91;94.88;98979.65;105973;1318;138217;-57
2021/12/08 07:13:12;;;;;;;13.20;7.60;;;;;;;-0.90;95.07;98984.35;106090;1318;23414;-58
2021/12/08 07:15:50;;;;;;;10.50;7.60;;;;;;;-0.89;94.82;98989.41;106086;1318;22497;-58
2021/12/08 07:18:28;;;;;;;12.70;7.40;;;;;;;-0.91;94.69;98990.60;105908;1319;138867;-58
2021/12/08 07:21:00;;;;;;;9.10;7.20;;;;;;;-0.89;94.63;98993.62;106074;1318;23068;-58
2021/12/08 07:23:51;;;;;;;13.20;8.10;;;;;;;-0.89;94.90;98992.19;106025;1318;137896;-58
2021/12/08 07:26:21;;;;;;;10.00;6.40;;;;;;;-0.88;94.59;98990.34;106080;1318;22543;-59
2021/12/08 07:28:49;;;;;;;10.20;6.20;;;;;;;-0.87;94.51;98990.55;105977;1318;138870;-59
2021/12/08 07:31:24;;;;;;;8.40;6.60;;;;;;;-0.89;94.75;98988.40;106096;1318;23246;-59
2021/12/08 07:33:53;;;;;;;10.60;6.80;;;;;;;-0.86;94.44;98991.31;105999;1319;22411;-58
2021/12/08 07:36:21;;;;;;;12.10;6.70;;;;;;;-0.86;94.30;98991.06;104998;1318;137875;-58
2021/12/08 07:38:52;;;;;;;11.70;6.40;;;;;;;-0.87;94.42;98989.21;106096;1318;22464;-58
2021/12/08 07:41:28;;;;;;;9.50;6.50;;;;;;;-0.87;94.20;98985.16;105948;1318;138281;-58
2021/12/08 07:43:57;;;;;;;11.00;7.00;;;;;;;-0.87;94.43;98986.42;106106;1321;22490;-57
2021/12/08 07:46:28;;;;;;;10.10;6.60;;;;;;;-0.88;94.17;98983.27;105958;1318;139318;-57
2021/12/08 07:49:12;;;;;;;11.10;7.10;;;;;;;-0.86;94.29;98988.39;106067;1318;22483;-58
2021/12/08 07:51:52;;;;;;;13.80;7.70;;;;;;;-0.87;94.12;98985.67;106104;1318;22408;-57
2021/12/08 07:54:21;;;;;;;13.50;7.30;;;;;;;-0.86;94.02;98987.36;105970;1318;138823;-57
2021/12/08 07:56:50;;;;;;;14.80;7.70;;;;;;;-0.87;93.96;98985.77;103208;1318;25551;-55
2021/12/08 07:59:19;;;;;;;12.60;7.40;;;;;;;-0.88;94.15;98984.91;105265;1318;139229;-57
2021/12/08 08:01:49;;;;;;;12.30;7.30;;;;;;;-0.88;94.02;98984.12;106094;1320;22414;-58
2021/12/08 08:04:19;;;;;;;12.70;6.60;;;;;;;-0.90;93.96;98977.36;105995;1318;138340;-58
2021/12/08 08:06:52;;;;;;;16.10;8.10;;;;;;;-0.90;93.99;98980.07;106108;1318;22408;-56
2021/12/08 08:09:24;;;;;;;14.60;7.80;;;;;;;-0.90;93.94;98976.83;105485;1318;22482;-56
2021/12/08 08:11:57;;;;;;;14.60;7.50;;;;;;;-0.88;94.16;98975.35;105968;1318;138045;-56
2021/12/08 08:14:29;;;;;;;12.40;7.80;;;;;;;-0.88;93.91;98976.55;106020;1323;22406;-57
2021/12/08 08:16:59;;;;;;;9.90;6.30;;;;;;;-0.88;93.85;98973.02;105950;1318;138609;-57
2021/12/08 08:19:30;;;;;;;10.30;6.00;;;;;;;-0.89;94.03;98970.29;105980;1324;22504;-57
2021/12/08 08:22:05;;;;;;;12.10;5.70;;;;;;;-0.89;93.90;98963.50;105972;1320;22588;-57
2021/12/08 08:24:33;;;;;;;11.30;6.80;;;;;;;-0.89;93.83;98959.02;105872;1318;140199;-56
2021/12/08 08:27:03;;;;;;;14.10;7.50;;;;;;;-0.88;93.82;98955.86;105698;1320;22391;-57
2021/12/08 08:29:31;;;;;;;15.20;8.70;;;;;;;-0.88;93.80;98949.77;105278;1318;138188;-56
2021/12/08 08:32:19;;;;;;;15.20;8.20;;;;;;;-0.88;93.76;98948.08;106084;1318;22456;-57
2021/12/08 08:34:54;;;;;;;16.20;7.70;;;;;;;-0.87;93.80;98945.04;105980;1318;138178;-57
2021/12/08 08:37:23;;;;;;;11.90;6.60;;;;;;;-0.88;93.84;98944.83;105939;1318;22292;-57
2021/12/08 08:39:54;;;;;;;14.00;7.20;;;;;;;-0.89;93.74;98944.21;105979;1318;23259;-57
2021/12/08 08:42:27;;;;;;;12.20;6.80;;;;;;;-0.89;93.80;98937.88;105739;1321;138143;-57
2021/12/08 08:45:05;;;;;;;11.40;7.10;;;;;;;-0.90;93.67;98935.07;106024;1318;22532;-57
2021/12/08 08:47:40;;;;;;;13.80;8.00;;;;;;;-0.91;93.62;98933.99;105940;1318;139711;-56
2021/12/08 08:50:10;;;;;;;10.00;6.60;;;;;;;-0.90;93.64;98939.10;106062;1318;22595;-57
2021/12/08 08:52:41;;;;;;;9.20;6.10;;;;;;;-0.90;93.83;98938.45;105986;1322;138279;-57
2021/12/08 08:55:36;;;;;;;11.10;6.20;;;;;;;-0.89;93.68;98941.75;106085;1318;23218;-57
2021/12/08 08:58:07;;;;;;;9.20;5.10;;;;;;;-0.89;93.63;98941.91;106092;1318;22490;-57
2021/12/08 09:00:46;;;;;;;11.60;5.80;;;;;;;-0.90;93.53;98945.73;105959;1318;137483;-58
2021/12/08 09:03:17;;;;;;;10.00;5.20;;;;;;;-0.88;93.79;98949.27;106114;1318;22398;-57
2021/12/08 09:05:57;;;;;;;9.50;5.10;;;;;;;-0.87;93.94;98945.08;105950;1318;138546;-58
2021/12/08 09:11:31;;;;;;;7.50;4.50;;;;;;;-0.83;93.65;98950.60;99272;1348;545129;-58
2021/12/08 09:14:03;;;;;;;6.90;4.20;;;;;;;-0.87;93.61;98959.83;100963;1326;24269;-58
2021/12/08 09:16:39;;;;;;;8.40;4.60;;;;;;;-0.88;93.43;98960.30;101047;1331;137209;-58
2021/12/08 09:19:12;;;;;;;8.60;5.50;;;;;;;-0.91;93.28;98948.06;101301;1332;24463;-60
2021/12/08 09:21:47;;;;;;;7.30;4.60;;;;;;;-0.91;93.47;98941.52;105460;1331;22492;-58
2021/12/08 09:24:45;;;;;;;9.00;5.70;;;;;;;-0.91;93.81;98947.37;105226;1326;136853;-59
2021/12/08 09:27:30;;;;;;;7.70;4.90;;;;;;;-0.92;93.32;98951.09;106189;1316;22655;-59
2021/12/08 09:30:01;;;;;;;7.90;4.30;;;;;;;-0.93;93.66;98951.21;106040;1316;138257;-59
2021/12/08 09:32:40;;;;;;;9.50;4.30;;;;;;;-0.95;93.71;98952.85;106150;1316;22527;-58
2021/12/08 09:35:14;;;;;;;9.20;5.00;;;;;;;-0.96;93.51;98944.98;106013;1316;137476;-64
2021/12/08 09:37:47;;;;;;;8.20;4.70;;;;;;;-0.96;93.60;98937.13;106120;1319;22565;-66
2021/12/08 09:40:34;;;;;;;9.20;5.50;;;;;;;-0.94;93.29;98937.05;106167;1316;22476;-66
2021/12/08 09:43:05;;;;;;;6.50;4.20;;;;;;;-0.93;93.40;98942.08;106119;1316;22384;-66
2021/12/08 09:45:37;;;;;;;7.40;4.60;;;;;;;-0.94;93.65;98936.77;106038;1319;23257;-66
2021/12/08 09:48:06;;;;;;;6.70;4.70;;;;;;;-0.95;93.27;98937.91;106103;1317;138315;-66
2021/12/08 09:50:35;;;;;;;9.30;5.40;;;;;;;-0.94;93.55;98937.30;106171;1319;22458;-66
2021/12/08 09:53:04;;;;;;;13.00;7.00;;;;;;;-0.94;93.42;98935.75;106050;1319;138681;-66
2021/12/08 09:55:34;;;;;;;8.80;4.30;;;;;;;-0.92;93.64;98939.09;106124;1319;23521;-66
2021/12/08 09:58:04;;;;;;;5.10;4.20;;;;;;;-0.91;93.50;98933.46;106154;1319;22387;-66
2021/12/08 10:00:36;;;;;;;6.50;4.50;;;;;;;-0.90;93.54;98935.77;106045;1319;137598;-66
2021/12/08 10:03:05;;;;;;;6.50;4.20;;;;;;;-0.88;93.61;98938.95;106158;1319;22484;-66
2021/12/08 10:05:35;;;;;;;8.60;5.20;;;;;;;-0.87;93.72;98942.86;105612;1324;137609;-66
2021/12/08 10:08:03;;;;;;;7.40;4.20;;;;;;;-0.85;93.32;98936.59;104976;1324;23604;-66
2021/12/08 10:10:32;;;;;;;5.00;3.60;;;;;;;-0.84;93.76;98934.05;106143;1325;24441;-65
2021/12/08 10:13:00;;;;;;;6.10;4.10;;;;;;;-0.85;93.44;98928.37;106103;1324;138657;-64
2021/12/08 10:15:28;;;;;;;8.10;4.90;;;;;;;-0.87;93.55;98927.52;106126;1319;22465;-66
2021/12/08 10:18:12;;;;;;;8.80;5.10;;;;;;;-0.87;93.55;98919.62;106004;1320;137484;-67
2021/12/08 10:20:51;;;;;;;7.40;4.80;;;;;;;-0.87;93.33;98923.56;106185;1319;22582;-67
2021/12/08 10:23:47;;;;;;;6.70;3.80;;;;;;;-0.87;93.75;98924.42;106046;1319;138141;-65
2021/12/08 10:26:20;;;;;;;18.00;10.60;;;;;;;-0.88;93.65;98920.36;106154;1319;22282;-65
2021/12/08 10:28:49;;;;;;;8.90;4.40;;;;;;;-0.88;93.69;98915.21;106002;1320;139051;-65
2021/12/08 10:31:45;;;;;;;7.90;4.00;;;;;;;-0.88;93.37;98910.27;106018;1319;23211;-66
2021/12/08 10:36:54;;;;;;;7.30;4.50;;;;;;;-0.91;93.59;98899.77;105971;1319;138640;-65
2021/12/08 10:39:38;;;;;;;7.30;4.50;;;;;;;-0.92;93.65;98898.69;106069;1319;22497;-65
2021/12/08 10:42:09;;;;;;;8.90;4.80;;;;;;;-0.91;93.49;98897.87;105997;1319;138765;-65
2021/12/08 10:44:56;;;;;;;7.70;4.80;;;;;;;-0.91;93.80;98897.34;106123;1319;23107;-65
2021/12/08 10:47:35;;;;;;;9.00;5.30;;;;;;;-0.91;93.58;98899.23;105943;1319;138647;-65
2021/12/08 10:55:39;;;;;;;8.30;5.20;;;;;;;-0.92;93.86;98892.98;106061;1319;22541;-66
2021/12/08 10:58:19;;;;;;;8.80;5.10;;;;;;;-0.92;93.83;98885.86;106093;1319;22551;-66
2021/12/08 11:00:47;;;;;;;8.80;5.20;;;;;;;-0.93;93.88;98884.66;105981;1323;137951;-65
2021/12/08 11:03:16;;;;;;;10.30;6.10;;;;;;;-0.95;93.52;98882.27;106102;1317;22602;-66
2021/12/08 11:05:52;;;;;;;9.30;5.80;;;;;;;-0.96;93.78;98879.61;105937;1319;137878;-65
2021/12/08 11:08:32;;;;;;;10.90;6.10;;;;;;;-0.95;94.01;98884.48;106100;1319;22491;-66
2021/12/08 11:11:07;;;;;;;9.60;5.40;;;;;;;-0.94;93.99;98883.46;105952;1319;22471;-66
2021/12/08 11:13:41;;;;;;;10.70;7.10;;;;;;;-0.95;93.88;98878.48;106002;1320;137555;-66
2021/12/08 11:16:13;;;;;;;11.70;5.80;;;;;;;-0.94;93.96;98881.48;106045;1319;22406;-66
2021/12/08 11:18:50;;;;;;;10.10;6.50;;;;;;;-0.94;94.01;98881.15;105862;1319;138830;-66
2021/12/08 11:21:21;;;;;;;10.20;6.30;;;;;;;-0.95;93.83;98880.00;106096;1319;22410;-65
2021/12/08 11:24:30;;;;;;;9.90;6.10;;;;;;;-0.96;94.17;98871.07;105912;1318;138497;-66
2021/12/08 11:27:00;;;;;;;10.00;6.60;;;;;;;-0.95;94.23;98872.35;106106;1319;23194;-66
2021/12/08 11:29:29;;;;;;;11.40;6.90;;;;;;;-0.96;94.02;98865.89;106030;1319;140817;-66
2021/12/08 11:32:02;;;;;;;10.80;6.90;;;;;;;-0.96;94.06;98865.42;106134;1319;22535;-66
2021/12/08 11:34:30;;;;;;;11.70;6.00;;;;;;;-0.97;94.18;98863.48;106095;1319;22520;-66
2021/12/08 11:37:02;;;;;;;10.50;6.10;;;;;;;-0.97;94.17;98861.73;106041;1319;137766;-66
2021/12/08 11:39:37;;;;;;;11.70;6.60;;;;;;;-0.97;94.35;98853.66;106130;1319;22506;-66
2021/12/08 11:42:10;;;;;;;12.10;6.60;;;;;;;-0.98;94.37;98854.55;106012;1319;138110;-66
2021/12/08 11:44:41;;;;;;;11.40;6.90;;;;;;;-0.99;94.06;98847.19;106130;1321;23202;-67
2021/12/08 11:47:11;;;;;;;10.20;6.60;;;;;;;-1.00;94.13;98846.95;106006;1319;23036;-66
2021/12/08 11:49:50;;;;;;;11.30;6.90;;;;;;;-1.01;94.40;98846.27;106032;1319;138023;-66
2021/12/08 11:52:23;;;;;;;10.40;6.30;;;;;;;-1.02;94.39;98843.55;106159;1319;22442;-66
2021/12/08 11:54:54;;;;;;;12.80;7.30;;;;;;;-1.05;94.61;98840.98;106008;1316;138981;-66
2021/12/08 11:57:26;;;;;;;12.80;7.20;;;;;;;-1.05;94.62;98838.23;106135;1316;22980;-66
2021/12/08 12:00:14;;;;;;;11.50;7.60;;;;;;;-1.07;94.84;98833.20;106064;1316;138916;-66
2021/12/08 12:02:52;;;;;;;9.70;6.70;;;;;;;-1.07;94.76;98835.37;106083;1316;22494;-66
2021/12/08 12:05:25;;;;;;;12.20;7.40;;;;;;;-1.07;94.80;98838.58;106104;1316;139157;-66
2021/12/08 12:07:54;;;;;;;14.10;7.30;;;;;;;-1.06;94.97;98843.27;106163;1316;22497;-66
2021/12/08 12:10:24;;;;;;;13.70;8.50;;;;;;;-1.08;94.89;98841.46;105875;1316;22446;-66
2021/12/08 12:12:58;;;;;;;12.70;7.90;;;;;;;-1.09;95.09;98843.39;106054;1316;138461;-66
2021/12/08 12:15:27;;;;;;;10.80;6.20;;;;;;;-1.08;95.01;98844.45;105701;1316;23107;-66
2021/12/08 12:17:55;;;;;;;13.20;7.80;;;;;;;-1.09;94.94;98842.15;102036;1316;138319;-66
2021/12/08 12:20:25;;;;;;;17.20;8.80;;;;;;;-1.09;95.35;98840.80;106073;1316;23288;-67